sensor_id;sensor_type;location;lat;lon;timestamp;pressure;altitude;pressure_sealevel;temperature;humidity
64158;BME280;50449;51.528;5.076;2022-12-11T00:01:27;101039.66;;;3.59;67.18
64158;BME280;50449;51.528;5.076;2022-12-11T00:03:53;101048.31;;;3.61;67.36
64158;BME280;50449;51.528;5.076;2022-12-11T00:06:21;101046.47;;;3.62;67.03
64158;BME280;50449;51.528;5.076;2022-12-11T00:08:46;101038.47;;;3.62;67.31
64158;BME280;50449;51.528;5.076;2022-12-11T00:11:15;101034.97;;;3.61;66.99
64158;BME280;50449;51.528;5.076;2022-12-11T00:13:41;101034.16;;;3.61;66.99
64158;BME280;50449;51.528;5.076;2022-12-11T00:16:07;101043.81;;;3.62;67.51
64158;BME280;50449;51.528;5.076;2022-12-11T00:18:33;101039.28;;;3.62;67.11
64158;BME280;50449;51.528;5.076;2022-12-11T00:21:04;101041.97;;;3.62;66.99
64158;BME280;50449;51.528;5.076;2022-12-11T00:23:30;101033.94;;;3.62;67.49
64158;BME280;50449;51.528;5.076;2022-12-11T00:25:55;101039.28;;;3.62;67.33
64158;BME280;50449;51.528;5.076;2022-12-11T00:28:21;101044.44;;;3.64;67.23
64158;BME280;50449;51.528;5.076;2022-12-11T00:30:47;101038.28;;;3.63;67.42
64158;BME280;50449;51.528;5.076;2022-12-11T00:33:13;101030.28;;;3.63;67.30
64158;BME280;50449;51.528;5.076;2022-12-11T00:35:41;101040.13;;;3.63;67.47
64158;BME280;50449;51.528;5.076;2022-12-11T00:38:06;101037.47;;;3.63;66.98
64158;BME280;50449;51.528;5.076;2022-12-11T00:40:34;101034.78;;;3.63;67.33
64158;BME280;50449;51.528;5.076;2022-12-11T00:42:59;101030.28;;;3.63;67.28
64158;BME280;50449;51.528;5.076;2022-12-11T00:45:25;101024.94;;;3.63;67.51
64158;BME280;50449;51.528;5.076;2022-12-11T00:47:50;101031.09;;;3.64;66.98
64158;BME280;50449;51.528;5.076;2022-12-11T00:50:15;101028.41;;;3.64;67.13
64158;BME280;50449;51.528;5.076;2022-12-11T00:52:41;101031.09;;;3.64;67.42
64158;BME280;50449;51.528;5.076;2022-12-11T00:55:06;101034.59;;;3.64;67.11
64158;BME280;50449;51.528;5.076;2022-12-11T00:57:31;101039.94;;;3.64;67.22
64158;BME280;50449;51.528;5.076;2022-12-11T00:59:57;101033.59;;;3.65;67.16
64158;BME280;50449;51.528;5.076;2022-12-11T01:02:22;101037.25;;;3.64;67.29
64158;BME280;50449;51.528;5.076;2022-12-11T01:04:47;101038.94;;;3.65;67.42
64158;BME280;50449;51.528;5.076;2022-12-11T01:07:13;101031.91;;;3.64;67.34
64158;BME280;50449;51.528;5.076;2022-12-11T01:09:38;101033.75;;;3.64;67.48
64158;BME280;50449;51.528;5.076;2022-12-11T01:12:22;101029.25;;;3.64;67.49
64158;BME280;50449;51.528;5.076;2022-12-11T01:14:47;101036.44;;;3.64;67.03
64158;BME280;50449;51.528;5.076;2022-12-11T01:17:13;101036.44;;;3.64;67.37
64158;BME280;50449;51.528;5.076;2022-12-11T01:19:38;101040.97;;;3.63;67.30
64158;BME280;50449;51.528;5.076;2022-12-11T01:22:03;101034.59;;;3.64;67.29
64158;BME280;50449;51.528;5.076;2022-12-11T01:24:29;101034.59;;;3.64;67.09
64158;BME280;50449;51.528;5.076;2022-12-11T01:26:54;101038.94;;;3.65;67.46
64158;BME280;50449;51.528;5.076;2022-12-11T01:29:20;101035.41;;;3.65;67.44
64158;BME280;50449;51.528;5.076;2022-12-11T01:31:45;101037.06;;;3.66;67.46
64158;BME280;50449;51.528;5.076;2022-12-11T01:34:10;101030.91;;;3.65;67.28
64158;BME280;50449;51.528;5.076;2022-12-11T01:36:36;101028.25;;;3.65;67.07
64158;BME280;50449;51.528;5.076;2022-12-11T01:39:01;101021.88;;;3.66;67.47
64158;BME280;50449;51.528;5.076;2022-12-11T01:41:27;101022.91;;;3.65;67.54
64158;BME280;50449;51.528;5.076;2022-12-11T01:43:56;101021.06;;;3.66;67.54
64158;BME280;50449;51.528;5.076;2022-12-11T01:46:22;101014.69;;;3.67;67.54
64158;BME280;50449;51.528;5.076;2022-12-11T01:48:47;101021.69;;;3.68;67.51
64158;BME280;50449;51.528;5.076;2022-12-11T01:51:13;101021.69;;;3.68;67.58
64158;BME280;50449;51.528;5.076;2022-12-11T01:53:45;101015.50;;;3.67;67.26
64158;BME280;50449;51.528;5.076;2022-12-11T01:56:13;101027.03;;;3.68;67.43
64158;BME280;50449;51.528;5.076;2022-12-11T01:58:43;101022.50;;;3.68;67.49
64158;BME280;50449;51.528;5.076;2022-12-11T02:01:23;101018.00;;;3.69;67.24
64158;BME280;50449;51.528;5.076;2022-12-11T02:03:52;101020.66;;;3.69;67.30
64158;BME280;50449;51.528;5.076;2022-12-11T02:06:49;101015.31;;;3.69;67.53
64158;BME280;50449;51.528;5.076;2022-12-11T02:09:22;101020.66;;;3.69;67.49
64158;BME280;50449;51.528;5.076;2022-12-11T02:11:54;101024.16;;;3.69;67.88
64158;BME280;50449;51.528;5.076;2022-12-11T02:14:39;101029.50;;;3.69;67.59
64158;BME280;50449;51.528;5.076;2022-12-11T02:22:27;101028.50;;;3.71;67.60
64158;BME280;50449;51.528;5.076;2022-12-11T02:28:22;101028.50;;;3.71;67.30
64158;BME280;50449;51.528;5.076;2022-12-11T02:30:56;101021.31;;;3.71;67.24
64158;BME280;50449;51.528;5.076;2022-12-11T02:33:26;101023.16;;;3.71;67.37
64158;BME280;50449;51.528;5.076;2022-12-11T02:35:54;101020.66;;;3.69;67.52
64158;BME280;50449;51.528;5.076;2022-12-11T02:38:27;101016.97;;;3.70;67.50
64158;BME280;50449;51.528;5.076;2022-12-11T02:40:55;101022.31;;;3.70;67.32
64158;BME280;50449;51.528;5.076;2022-12-11T02:43:22;101015.97;;;3.71;67.49
64158;BME280;50449;51.528;5.076;2022-12-11T02:45:50;101016.78;;;3.72;67.57
64158;BME280;50449;51.528;5.076;2022-12-11T02:48:17;101010.63;;;3.71;67.79
64158;BME280;50449;51.528;5.076;2022-12-11T02:50:46;101012.25;;;3.72;67.62
64158;BME280;50449;51.528;5.076;2022-12-11T02:53:19;101012.25;;;3.72;67.46
64158;BME280;50449;51.528;5.076;2022-12-11T02:55:49;101011.44;;;3.72;67.51
64158;BME280;50449;51.528;5.076;2022-12-11T02:58:18;101011.44;;;3.72;67.42
64158;BME280;50449;51.528;5.076;2022-12-11T03:00:47;101012.25;;;3.72;67.72
64158;BME280;50449;51.528;5.076;2022-12-11T03:03:12;101008.59;;;3.73;67.66
64158;BME280;50449;51.528;5.076;2022-12-11T03:05:38;101006.75;;;3.74;67.46
64158;BME280;50449;51.528;5.076;2022-12-11T03:08:05;100998.72;;;3.74;67.64
64158;BME280;50449;51.528;5.076;2022-12-11T03:10:30;100999.53;;;3.74;67.63
64158;BME280;50449;51.528;5.076;2022-12-11T03:12:57;100995.84;;;3.75;67.49
64158;BME280;50449;51.528;5.076;2022-12-11T03:15:40;100991.53;;;3.74;67.72
64158;BME280;50449;51.528;5.076;2022-12-11T03:18:37;100993.16;;;3.75;67.51
64158;BME280;50449;51.528;5.076;2022-12-11T03:21:28;100986.00;;;3.76;67.61
64158;BME280;50449;51.528;5.076;2022-12-11T03:24:07;100985.16;;;3.75;67.61
64158;BME280;50449;51.528;5.076;2022-12-11T03:26:38;100992.16;;;3.76;67.59
64158;BME280;50449;51.528;5.076;2022-12-11T03:29:16;100985.16;;;3.75;67.61
64158;BME280;50449;51.528;5.076;2022-12-11T03:34:26;100986.81;;;3.76;67.54
64158;BME280;50449;51.528;5.076;2022-12-11T03:36:54;100994.84;;;3.76;67.26
64158;BME280;50449;51.528;5.076;2022-12-11T03:39:26;100991.13;;;3.77;67.69
64158;BME280;50449;51.528;5.076;2022-12-11T03:41:54;100990.31;;;3.77;67.38
64158;BME280;50449;51.528;5.076;2022-12-11T03:44:20;100984.78;;;3.78;67.53
64158;BME280;50449;51.528;5.076;2022-12-11T03:46:48;100978.59;;;3.78;67.47
64158;BME280;50449;51.528;5.076;2022-12-11T03:49:20;100971.44;;;3.78;67.66
64158;BME280;50449;51.528;5.076;2022-12-11T03:51:49;100974.94;;;3.79;67.39
64158;BME280;50449;51.528;5.076;2022-12-11T03:54:16;100976.56;;;3.80;67.39
64158;BME280;50449;51.528;5.076;2022-12-11T03:56:44;100973.06;;;3.79;67.50
64158;BME280;50449;51.528;5.076;2022-12-11T03:59:10;100973.06;;;3.79;67.64
64158;BME280;50449;51.528;5.076;2022-12-11T04:01:35;100973.06;;;3.79;67.53
64158;BME280;50449;51.528;5.076;2022-12-11T04:04:00;100972.03;;;3.80;67.49
64158;BME280;50449;51.528;5.076;2022-12-11T04:06:26;100967.72;;;3.79;67.56
64158;BME280;50449;51.528;5.076;2022-12-11T04:08:51;100965.06;;;3.79;67.39
64158;BME280;50449;51.528;5.076;2022-12-11T04:11:17;100965.06;;;3.79;67.33
64158;BME280;50449;51.528;5.076;2022-12-11T04:14:08;100953.72;;;3.77;67.24
64158;BME280;50449;51.528;5.076;2022-12-11T04:16:52;100958.25;;;3.77;67.33
64158;BME280;50449;51.528;5.076;2022-12-11T04:19:18;100965.44;;;3.76;67.74
64158;BME280;50449;51.528;5.076;2022-12-11T04:22:03;100960.09;;;3.76;67.40
64158;BME280;50449;51.528;5.076;2022-12-11T04:24:47;100962.78;;;3.76;67.69
64158;BME280;50449;51.528;5.076;2022-12-11T04:27:14;100969.13;;;3.75;67.61
64158;BME280;50449;51.528;5.076;2022-12-11T04:29:59;100961.97;;;3.76;67.26
64158;BME280;50449;51.528;5.076;2022-12-11T04:32:25;100959.28;;;3.76;67.71
64158;BME280;50449;51.528;5.076;2022-12-11T04:34:50;100957.44;;;3.76;67.41
64158;BME280;50449;51.528;5.076;2022-12-11T04:37:15;100955.59;;;3.77;67.43
64158;BME280;50449;51.528;5.076;2022-12-11T04:39:41;100955.59;;;3.77;67.74
64158;BME280;50449;51.528;5.076;2022-12-11T04:42:06;100954.75;;;3.76;67.53
64158;BME280;50449;51.528;5.076;2022-12-11T04:44:32;100938.72;;;3.76;67.41
64158;BME280;50449;51.528;5.076;2022-12-11T04:46:58;100947.38;;;3.78;67.65
64158;BME280;50449;51.528;5.076;2022-12-11T04:49:23;100946.53;;;3.78;67.58
64158;BME280;50449;51.528;5.076;2022-12-11T04:51:48;100943.88;;;3.78;67.63
64158;BME280;50449;51.528;5.076;2022-12-11T04:54:14;100939.56;;;3.77;67.35
64158;BME280;50449;51.528;5.076;2022-12-11T04:56:39;100943.69;;;3.79;67.62
64158;BME280;50449;51.528;5.076;2022-12-11T04:59:04;100939.38;;;3.78;67.28
64158;BME280;50449;51.528;5.076;2022-12-11T05:01:30;100935.84;;;3.78;67.40
64158;BME280;50449;51.528;5.076;2022-12-11T05:03:58;100936.06;;;3.76;67.40
64158;BME280;50449;51.528;5.076;2022-12-11T05:06:23;100929.50;;;3.79;67.29
64158;BME280;50449;51.528;5.076;2022-12-11T05:08:48;100938.34;;;3.79;67.62
64158;BME280;50449;51.528;5.076;2022-12-11T05:11:14;100928.47;;;3.80;67.39
64158;BME280;50449;51.528;5.076;2022-12-11T05:13:40;100923.13;;;3.80;67.22
64158;BME280;50449;51.528;5.076;2022-12-11T05:16:08;100927.66;;;3.79;67.74
64158;BME280;50449;51.528;5.076;2022-12-11T05:18:34;100930.31;;;3.79;67.36
64158;BME280;50449;51.528;5.076;2022-12-11T05:21:01;100936.50;;;3.80;67.30
64158;BME280;50449;51.528;5.076;2022-12-11T05:23:27;100939.97;;;3.80;67.27
64158;BME280;50449;51.528;5.076;2022-12-11T05:25:54;100932.81;;;3.81;67.46
64158;BME280;50449;51.528;5.076;2022-12-11T05:28:21;100947.00;;;3.81;67.44
64158;BME280;50449;51.528;5.076;2022-12-11T05:30:47;100937.31;;;3.80;67.34
64158;BME280;50449;51.528;5.076;2022-12-11T05:33:13;100930.97;;;3.81;67.29
64158;BME280;50449;51.528;5.076;2022-12-11T05:35:38;100932.81;;;3.81;67.34
64158;BME280;50449;51.528;5.076;2022-12-11T05:38:03;100934.44;;;3.82;67.32
64158;BME280;50449;51.528;5.076;2022-12-11T05:40:29;100945.13;;;3.82;67.40
64158;BME280;50449;51.528;5.076;2022-12-11T05:42:54;100941.66;;;3.81;67.55
64158;BME280;50449;51.528;5.076;2022-12-11T05:45:19;100940.84;;;3.81;67.61
64158;BME280;50449;51.528;5.076;2022-12-11T05:47:45;100941.66;;;3.81;67.45
64158;BME280;50449;51.528;5.076;2022-12-11T05:50:10;100938.75;;;3.83;67.69
64158;BME280;50449;51.528;5.076;2022-12-11T05:52:35;100947.81;;;3.82;67.23
64158;BME280;50449;51.528;5.076;2022-12-11T05:55:01;100943.28;;;3.82;67.70
64158;BME280;50449;51.528;5.076;2022-12-11T05:57:26;100945.97;;;3.82;67.19
64158;BME280;50449;51.528;5.076;2022-12-11T05:59:52;100943.28;;;3.82;67.53
64158;BME280;50449;51.528;5.076;2022-12-11T06:02:17;100946.78;;;3.83;67.41
64158;BME280;50449;51.528;5.076;2022-12-11T06:04:42;100938.75;;;3.83;67.24
64158;BME280;50449;51.528;5.076;2022-12-11T06:07:08;100939.81;;;3.82;67.26
64158;BME280;50449;51.528;5.076;2022-12-11T06:09:33;100930.75;;;3.83;67.50
64158;BME280;50449;51.528;5.076;2022-12-11T06:11:58;100931.78;;;3.82;67.37
64158;BME280;50449;51.528;5.076;2022-12-11T06:14:24;100936.09;;;3.83;67.13
64158;BME280;50449;51.528;5.076;2022-12-11T06:16:49;100933.41;;;3.83;67.68
64158;BME280;50449;51.528;5.076;2022-12-11T06:19:15;100925.41;;;3.83;67.32
64158;BME280;50449;51.528;5.076;2022-12-11T06:21:42;100936.94;;;3.83;67.08
64158;BME280;50449;51.528;5.076;2022-12-11T06:24:09;100927.06;;;3.84;67.30
64158;BME280;50449;51.528;5.076;2022-12-11T06:26:35;100928.06;;;3.83;67.27
64158;BME280;50449;51.528;5.076;2022-12-11T06:29:00;100935.91;;;3.84;67.21
64158;BME280;50449;51.528;5.076;2022-12-11T06:31:26;100935.91;;;3.84;67.56
64158;BME280;50449;51.528;5.076;2022-12-11T06:33:51;100936.72;;;3.85;67.08
64158;BME280;50449;51.528;5.076;2022-12-11T06:36:20;100926.25;;;3.83;67.42
64158;BME280;50449;51.528;5.076;2022-12-11T06:38:46;100922.72;;;3.83;67.41
64158;BME280;50449;51.528;5.076;2022-12-11T06:41:15;100932.59;;;3.82;67.61
64158;BME280;50449;51.528;5.076;2022-12-11T06:43:41;100926.25;;;3.83;67.16
64158;BME280;50449;51.528;5.076;2022-12-11T06:46:12;100920.91;;;3.83;67.16
64158;BME280;50449;51.528;5.076;2022-12-11T06:48:38;100923.59;;;3.83;67.40
64158;BME280;50449;51.528;5.076;2022-12-11T06:51:08;100919.06;;;3.84;67.41
64158;BME280;50449;51.528;5.076;2022-12-11T06:53:34;100927.06;;;3.84;67.44
64158;BME280;50449;51.528;5.076;2022-12-11T06:56:04;100927.06;;;3.84;67.34
64158;BME280;50449;51.528;5.076;2022-12-11T06:58:32;100924.41;;;3.84;67.31
64158;BME280;50449;51.528;5.076;2022-12-11T07:00:57;100924.41;;;3.84;67.44
64158;BME280;50449;51.528;5.076;2022-12-11T07:03:23;100927.06;;;3.84;67.50
64158;BME280;50449;51.528;5.076;2022-12-11T07:05:48;100930.56;;;3.84;67.20
64158;BME280;50449;51.528;5.076;2022-12-11T07:08:14;100935.09;;;3.84;67.52
64158;BME280;50449;51.528;5.076;2022-12-11T07:10:39;100941.25;;;3.84;67.38
64158;BME280;50449;51.528;5.076;2022-12-11T07:13:05;100944.97;;;3.83;67.40
64158;BME280;50449;51.528;5.076;2022-12-11T07:15:31;100943.94;;;3.84;67.09
64158;BME280;50449;51.528;5.076;2022-12-11T07:17:56;100947.41;;;3.85;67.17
64158;BME280;50449;51.528;5.076;2022-12-11T07:20:21;100950.09;;;3.85;67.50
64158;BME280;50449;51.528;5.076;2022-12-11T07:22:47;100950.09;;;3.85;67.55
64158;BME280;50449;51.528;5.076;2022-12-11T07:25:13;100950.91;;;3.85;67.24
64158;BME280;50449;51.528;5.076;2022-12-11T07:27:39;100949.09;;;3.86;67.40
64158;BME280;50449;51.528;5.076;2022-12-11T07:30:06;100952.75;;;3.85;67.43
64158;BME280;50449;51.528;5.076;2022-12-11T07:32:31;100949.28;;;3.84;67.39
64158;BME280;50449;51.528;5.076;2022-12-11T07:34:57;100956.25;;;3.85;67.36
64158;BME280;50449;51.528;5.076;2022-12-11T07:37:22;100952.59;;;3.86;67.15
64158;BME280;50449;51.528;5.076;2022-12-11T07:39:47;100944.56;;;3.86;67.44
64158;BME280;50449;51.528;5.076;2022-12-11T07:42:13;100942.72;;;3.87;67.43
64158;BME280;50449;51.528;5.076;2022-12-11T07:44:38;100952.59;;;3.86;67.67
64158;BME280;50449;51.528;5.076;2022-12-11T07:47:03;100947.25;;;3.86;67.46
64158;BME280;50449;51.528;5.076;2022-12-11T07:49:29;100950.91;;;3.85;67.36
64158;BME280;50449;51.528;5.076;2022-12-11T07:51:55;100955.25;;;3.86;67.41
64158;BME280;50449;51.528;5.076;2022-12-11T07:54:20;100954.44;;;3.86;67.42
64158;BME280;50449;51.528;5.076;2022-12-11T07:56:46;100952.59;;;3.86;67.21
64158;BME280;50449;51.528;5.076;2022-12-11T07:59:15;100948.06;;;3.87;67.32
64158;BME280;50449;51.528;5.076;2022-12-11T08:01:43;100956.06;;;3.87;67.55
64158;BME280;50449;51.528;5.076;2022-12-11T08:04:10;100949.91;;;3.86;67.61
64158;BME280;50449;51.528;5.076;2022-12-11T08:06:41;100949.91;;;3.86;67.48
64158;BME280;50449;51.528;5.076;2022-12-11T08:09:08;100952.59;;;3.86;67.11
64158;BME280;50449;51.528;5.076;2022-12-11T08:11:34;100946.41;;;3.86;67.22
64158;BME280;50449;51.528;5.076;2022-12-11T08:13:59;100942.72;;;3.87;67.17
64158;BME280;50449;51.528;5.076;2022-12-11T08:16:25;100951.56;;;3.87;67.32
64158;BME280;50449;51.528;5.076;2022-12-11T08:18:51;100945.38;;;3.87;67.46
64158;BME280;50449;51.528;5.076;2022-12-11T08:21:21;100948.06;;;3.87;67.42
64158;BME280;50449;51.528;5.076;2022-12-11T08:23:48;100946.22;;;3.87;67.47
64158;BME280;50449;51.528;5.076;2022-12-11T08:26:16;100951.56;;;3.87;67.58
64158;BME280;50449;51.528;5.076;2022-12-11T08:28:42;100953.22;;;3.88;67.34
64158;BME280;50449;51.528;5.076;2022-12-11T08:31:09;100946.22;;;3.87;67.16
64158;BME280;50449;51.528;5.076;2022-12-11T08:33:36;100956.72;;;3.89;67.09
64158;BME280;50449;51.528;5.076;2022-12-11T08:36:06;100957.72;;;3.88;67.44
64158;BME280;50449;51.528;5.076;2022-12-11T08:38:32;100955.03;;;3.88;67.50
64158;BME280;50449;51.528;5.076;2022-12-11T08:43:36;100953.22;;;3.88;67.41
64158;BME280;50449;51.528;5.076;2022-12-11T08:46:02;100945.22;;;3.88;67.30
64158;BME280;50449;51.528;5.076;2022-12-11T08:48:28;100948.69;;;3.89;67.19
64158;BME280;50449;51.528;5.076;2022-12-11T08:50:53;100954.88;;;3.89;67.10
64158;BME280;50449;51.528;5.076;2022-12-11T08:53:19;100941.69;;;3.88;67.09
64158;BME280;50449;51.528;5.076;2022-12-11T08:55:44;100941.50;;;3.89;67.18
64158;BME280;50449;51.528;5.076;2022-12-11T08:58:09;100940.69;;;3.89;67.45
64158;BME280;50449;51.528;5.076;2022-12-11T09:00:35;100943.34;;;3.89;67.47
64158;BME280;50449;51.528;5.076;2022-12-11T09:03:00;100933.47;;;3.89;67.11
64158;BME280;50449;51.528;5.076;2022-12-11T09:05:26;100934.31;;;3.90;67.20
64158;BME280;50449;51.528;5.076;2022-12-11T09:07:51;100938.66;;;3.91;67.40
64158;BME280;50449;51.528;5.076;2022-12-11T09:10:17;100947.66;;;3.90;67.63
64158;BME280;50449;51.528;5.076;2022-12-11T09:12:42;100951.16;;;3.90;67.44
64158;BME280;50449;51.528;5.076;2022-12-11T09:15:08;100951.16;;;3.90;67.54
64158;BME280;50449;51.528;5.076;2022-12-11T09:17:34;100950.16;;;3.92;67.33
64158;BME280;50449;51.528;5.076;2022-12-11T09:19:59;100941.31;;;3.91;67.26
64158;BME280;50449;51.528;5.076;2022-12-11T09:22:24;100947.50;;;3.92;67.58
64158;BME280;50449;51.528;5.076;2022-12-11T09:24:50;100947.50;;;3.92;67.03
64158;BME280;50449;51.528;5.076;2022-12-11T09:27:15;100947.50;;;3.92;67.28
64158;BME280;50449;51.528;5.076;2022-12-11T09:29:41;100941.97;;;3.93;67.24
64158;BME280;50449;51.528;5.076;2022-12-11T09:32:06;100937.63;;;3.92;67.36
64158;BME280;50449;51.528;5.076;2022-12-11T09:34:32;100945.63;;;3.92;67.17
64158;BME280;50449;51.528;5.076;2022-12-11T09:36:57;100945.63;;;3.92;67.21
64158;BME280;50449;51.528;5.076;2022-12-11T09:39:23;100945.44;;;3.94;67.13
64158;BME280;50449;51.528;5.076;2022-12-11T09:42:20;100939.47;;;3.92;67.42
64158;BME280;50449;51.528;5.076;2022-12-11T09:44:50;100940.09;;;3.94;67.15
64158;BME280;50449;51.528;5.076;2022-12-11T09:48:06;100936.63;;;3.93;67.09
64158;BME280;50449;51.528;5.076;2022-12-11T09:50:24;100936.63;;;3.93;67.39
64158;BME280;50449;51.528;5.076;2022-12-11T09:55:31;100930.41;;;3.93;67.41
64158;BME280;50449;51.528;5.076;2022-12-11T09:58:30;100929.41;;;3.94;67.13
64158;BME280;50449;51.528;5.076;2022-12-11T10:04:14;100929.59;;;3.92;67.13
64158;BME280;50449;51.528;5.076;2022-12-11T10:06:46;100925.28;;;3.91;67.09
64158;BME280;50449;51.528;5.076;2022-12-11T10:09:25;100925.91;;;3.93;67.21
64158;BME280;50449;51.528;5.076;2022-12-11T10:14:53;100931.28;;;3.93;67.21
64158;BME280;50449;51.528;5.076;2022-12-11T10:17:30;100926.75;;;3.94;67.51
64158;BME280;50449;51.528;5.076;2022-12-11T10:20:02;100924.06;;;3.94;67.56
64158;BME280;50449;51.528;5.076;2022-12-11T10:22:31;100925.72;;;3.95;67.29
64158;BME280;50449;51.528;5.076;2022-12-11T10:24:59;100919.53;;;3.94;67.28
64158;BME280;50449;51.528;5.076;2022-12-11T10:27:30;100921.19;;;3.95;67.15
64158;BME280;50449;51.528;5.076;2022-12-11T10:33:01;100906.81;;;3.96;67.45
64158;BME280;50449;51.528;5.076;2022-12-11T10:35:35;100910.50;;;3.95;67.46
64158;BME280;50449;51.528;5.076;2022-12-11T10:40:34;100912.16;;;3.96;67.32
64158;BME280;50449;51.528;5.076;2022-12-11T10:43:01;100908.66;;;3.96;67.45
64158;BME280;50449;51.528;5.076;2022-12-11T10:45:26;100921.81;;;3.97;67.27
64158;BME280;50449;51.528;5.076;2022-12-11T10:48:09;100906.41;;;3.99;67.40
64158;BME280;50449;51.528;5.076;2022-12-11T10:50:35;100903.94;;;3.98;67.54
64158;BME280;50449;51.528;5.076;2022-12-11T10:53:01;100906.59;;;3.98;67.38
64158;BME280;50449;51.528;5.076;2022-12-11T10:55:39;100909.09;;;3.99;67.58
64158;BME280;50449;51.528;5.076;2022-12-11T10:58:15;100909.09;;;3.99;67.15
64158;BME280;50449;51.528;5.076;2022-12-11T11:00:43;100904.56;;;4.00;67.29
64158;BME280;50449;51.528;5.076;2022-12-11T11:03:23;100902.72;;;4.00;67.36
64158;BME280;50449;51.528;5.076;2022-12-11T11:08:42;100898.22;;;4.01;67.15
64158;BME280;50449;51.528;5.076;2022-12-11T11:11:34;100899.03;;;4.01;67.44
64158;BME280;50449;51.528;5.076;2022-12-11T11:14:15;100903.34;;;4.02;67.48
64158;BME280;50449;51.528;5.076;2022-12-11T11:16:46;100899.84;;;4.02;67.15
64158;BME280;50449;51.528;5.076;2022-12-11T11:19:31;100898.00;;;4.02;67.33
64158;BME280;50449;51.528;5.076;2022-12-11T11:22:04;100894.34;;;4.03;67.11
64158;BME280;50449;51.528;5.076;2022-12-11T11:24:35;100888.97;;;4.03;67.45
64158;BME280;50449;51.528;5.076;2022-12-11T11:29:59;100893.28;;;4.04;67.14
64158;BME280;50449;51.528;5.076;2022-12-11T11:32:31;100886.09;;;4.05;67.34
64158;BME280;50449;51.528;5.076;2022-12-11T11:37:44;100891.25;;;4.06;66.94
64158;BME280;50449;51.528;5.076;2022-12-11T11:40:36;100889.41;;;4.07;67.26
64158;BME280;50449;51.528;5.076;2022-12-11T11:43:14;100894.56;;;4.08;66.96
64158;BME280;50449;51.528;5.076;2022-12-11T11:46:05;100890.22;;;4.07;67.38
64158;BME280;50449;51.528;5.076;2022-12-11T11:51:35;100881.19;;;4.08;67.15
64158;BME280;50449;51.528;5.076;2022-12-11T11:54:08;100883.88;;;4.08;67.18
64158;BME280;50449;51.528;5.076;2022-12-11T11:56:39;100881.00;;;4.10;67.16
64158;BME280;50449;51.528;5.076;2022-12-11T11:59:10;100878.31;;;4.10;67.07
64158;BME280;50449;51.528;5.076;2022-12-11T12:01:40;100878.94;;;4.12;67.26
64158;BME280;50449;51.528;5.076;2022-12-11T12:04:07;100876.28;;;4.12;66.91
64158;BME280;50449;51.528;5.076;2022-12-11T12:09:50;100874.41;;;4.12;67.39
64158;BME280;50449;51.528;5.076;2022-12-11T12:15:25;100868.25;;;4.12;67.08
64158;BME280;50449;51.528;5.076;2022-12-11T12:18:13;100867.22;;;4.13;66.90
64158;BME280;50449;51.528;5.076;2022-12-11T12:20:50;100860.22;;;4.12;67.22
64158;BME280;50449;51.528;5.076;2022-12-11T12:26:35;100865.19;;;4.15;67.73
64158;BME280;50449;51.528;5.076;2022-12-11T12:32:22;100855.53;;;4.14;67.03
64158;BME280;50449;51.528;5.076;2022-12-11T12:37:49;100857.97;;;4.16;67.18
64158;BME280;50449;51.528;5.076;2022-12-11T12:40:30;100852.63;;;4.16;67.23
64158;BME280;50449;51.528;5.076;2022-12-11T12:46:20;100853.47;;;4.16;66.75
64158;BME280;50449;51.528;5.076;2022-12-11T12:48:49;100851.81;;;4.15;66.98
64158;BME280;50449;51.528;5.076;2022-12-11T12:51:16;100853.47;;;4.16;67.02
64158;BME280;50449;51.528;5.076;2022-12-11T12:53:47;100855.13;;;4.17;67.26
64158;BME280;50449;51.528;5.076;2022-12-11T12:56:14;100853.47;;;4.16;67.13
64158;BME280;50449;51.528;5.076;2022-12-11T12:58:43;100845.47;;;4.16;67.23
64158;BME280;50449;51.528;5.076;2022-12-11T13:04:03;100844.44;;;4.17;67.21
64158;BME280;50449;51.528;5.076;2022-12-11T13:06:39;100844.44;;;4.17;66.88
64158;BME280;50449;51.528;5.076;2022-12-11T13:09:20;100851.41;;;4.18;67.24
64158;BME280;50449;51.528;5.076;2022-12-11T13:11:47;100844.25;;;4.19;67.29
64158;BME280;50449;51.528;5.076;2022-12-11T13:16:50;100848.75;;;4.18;67.18
64158;BME280;50449;51.528;5.076;2022-12-11T13:26:46;100843.19;;;4.20;66.73
64158;BME280;50449;51.528;5.076;2022-12-11T13:32:23;100847.72;;;4.19;67.25
64158;BME280;50449;51.528;5.076;2022-12-11T13:34:58;100850.41;;;4.19;66.95
64158;BME280;50449;51.528;5.076;2022-12-11T13:40:05;100845.06;;;4.19;66.78
64158;BME280;50449;51.528;5.076;2022-12-11T13:42:35;100855.75;;;4.19;67.00
64158;BME280;50449;51.528;5.076;2022-12-11T13:45:03;100857.38;;;4.20;66.89
64158;BME280;50449;51.528;5.076;2022-12-11T13:47:30;100858.44;;;4.19;66.93
64158;BME280;50449;51.528;5.076;2022-12-11T13:50:11;100853.09;;;4.19;67.18
64158;BME280;50449;51.528;5.076;2022-12-11T13:52:55;100855.53;;;4.21;66.94
64158;BME280;50449;51.528;5.076;2022-12-11T13:55:27;100857.38;;;4.20;66.73
64158;BME280;50449;51.528;5.076;2022-12-11T13:57:54;100860.06;;;4.20;66.86
64158;BME280;50449;51.528;5.076;2022-12-11T14:00:30;100860.06;;;4.20;67.00
64158;BME280;50449;51.528;5.076;2022-12-11T14:02:59;100857.38;;;4.20;67.14
64158;BME280;50449;51.528;5.076;2022-12-11T14:05:26;100860.06;;;4.20;66.79
64158;BME280;50449;51.528;5.076;2022-12-11T14:07:54;100859.06;;;4.21;66.92
64158;BME280;50449;51.528;5.076;2022-12-11T14:10:28;100859.88;;;4.22;66.97
64158;BME280;50449;51.528;5.076;2022-12-11T14:15:27;100868.72;;;4.22;66.93
64158;BME280;50449;51.528;5.076;2022-12-11T14:17:53;100873.25;;;4.22;66.98
64158;BME280;50449;51.528;5.076;2022-12-11T14:20:33;100869.53;;;4.23;66.84
64158;BME280;50449;51.528;5.076;2022-12-11T14:23:12;100869.53;;;4.23;67.12
64158;BME280;50449;51.528;5.076;2022-12-11T14:25:40;100872.22;;;4.23;66.50
64158;BME280;50449;51.528;5.076;2022-12-11T14:28:14;100867.91;;;4.22;66.89
64158;BME280;50449;51.528;5.076;2022-12-11T14:30:46;100871.38;;;4.22;66.65